^^
Datos históricos de la estación: Murcia-Puente Tocinos
Diario Informe para Marzo 4, 2019 Unidades:  Ambas    Ingés   Métrico
Diario Semanal Mensual Anual
  Máxima: Mínima: Promedio:
Temperatura: 93.7 °F /  34.3 °C 74.3 °F /  23.5 °C 82.9 °F /  28.3 °C
Punto de rocio: 71.4 °F /  21.9 °C 67.1 °F /  19.5 °C 69.4 °F /  20.8 °C
Humedad: 85% 42.9% 66%
Velocidad viento: 10.7mph /  17.2km/h - 5.2mph /  8.4km/h
Racha viento: 21mph /  33.8km/h - -
Viento- - ESE
Presión: 29.9 in /  1013.0 hPa 29.8 in /  1009.4 hPa -
Precipitación: 0 in /  0.0 mm    
 
 
Tabla de datos para Marzo 4, 2019
Hora Temperatura Punto de rocio Presión Viento Velocidad viento Racha viento Humedad Intensidad lluvia(por hora) Nubes
00:04 77.7 °F /  25.4 °C 68.7 °F /  20.4 °C 29.9in /  1012.9hPa NE 3.6mph /  5.8km/h 6mph /  9.7km/h 73.7% 0in /  0.0mm
00:09 77.7 °F /  25.4 °C 68.4 °F /  20.2 °C 29.9in /  1012.9hPa ENE 3.4mph /  5.5km/h 7.4mph /  11.9km/h 72.8% 0in /  0.0mm
00:14 77.7 °F /  25.4 °C 68 °F /  20 °C 29.9in /  1012.9hPa ENE 3.1mph /  5km/h 7mph /  11.3km/h 72% 0in /  0.0mm
00:19 77.7 °F /  25.4 °C 68 °F /  20 °C 29.9in /  1012.9hPa ENE 3.1mph /  5km/h 6mph /  9.7km/h 72% 0in /  0.0mm
00:24 77.7 °F /  25.4 °C 68.2 °F /  20.1 °C 29.9in /  1012.9hPa NE 3.1mph /  5km/h 7.4mph /  11.9km/h 72.5% 0in /  0.0mm
00:29 77.5 °F /  25.3 °C 68.4 °F /  20.2 °C 29.9in /  1012.9hPa NE 3.7mph /  5.9km/h 7.4mph /  11.9km/h 73.5% 0in /  0.0mm
00:34 77.5 °F /  25.3 °C 68.5 °F /  20.3 °C 29.9in /  1013.0hPa NE 4.7mph /  7.6km/h 8.1mph /  13km/h 74% 0in /  0.0mm
00:39 77.4 °F /  25.2 °C 68.5 °F /  20.3 °C 29.9in /  1013.0hPa ENE 4.7mph /  7.6km/h 9.2mph /  14.8km/h 74.5% 0in /  0.0mm
00:44 77.4 °F /  25.2 °C 68.7 °F /  20.4 °C 29.9in /  1013.0hPa NE 4.7mph /  7.6km/h 9mph /  14.5km/h 75% 0in /  0.0mm
00:49 77.4 °F /  25.2 °C 68.9 °F /  20.5 °C 29.9in /  1013.0hPa ENE 4.7mph /  7.6km/h 9mph /  14.5km/h 75.3% 0in /  0.0mm
00:54 77.2 °F /  25.1 °C 69.1 °F /  20.6 °C 29.9in /  1012.8hPa NE 4.7mph /  7.6km/h 7mph /  11.3km/h 76% 0in /  0.0mm
00:59 77.2 °F /  25.1 °C 69.1 °F /  20.6 °C 29.9in /  1012.8hPa NE 4.4mph /  7.1km/h 7mph /  11.3km/h 76% 0in /  0.0mm
01:04 77.2 °F /  25.1 °C 69.3 °F /  20.7 °C 29.9in /  1012.8hPa NE 4mph /  6.5km/h 6.4mph /  10.3km/h 76.9% 0in /  0.0mm
01:09 77 °F /  25 °C 69.1 °F /  20.6 °C 29.9in /  1012.8hPa NE 4mph /  6.5km/h 7mph /  11.3km/h 76.6% 0in /  0.0mm
01:14 76.6 °F /  24.8 °C 69.1 °F /  20.6 °C 29.9in /  1012.8hPa NE 4mph /  6.5km/h 7mph /  11.3km/h 77% 0in /  0.0mm
01:19 76.6 °F /  24.8 °C 69.1 °F /  20.6 °C 29.9in /  1012.9hPa NE 4mph /  6.5km/h 6.9mph /  11.1km/h 77.3% 0in /  0.0mm
01:24 76.5 °F /  24.7 °C 69.1 °F /  20.6 °C 29.9in /  1012.9hPa NE 4mph /  6.5km/h 7.6mph /  12.2km/h 78.1% 0in /  0.0mm
01:29 76.3 °F /  24.6 °C 69.3 °F /  20.7 °C 29.9in /  1012.9hPa NE 4.2mph /  6.8km/h 8.1mph /  13km/h 79% 0in /  0.0mm
01:34 76.3 °F /  24.6 °C 69.4 °F /  20.8 °C 29.9in /  1012.9hPa NE 4.7mph /  7.6km/h 7mph /  11.3km/h 79.6% 0in /  0.0mm
01:39 76.1 °F /  24.5 °C 69.4 °F /  20.8 °C 29.9in /  1012.9hPa NE 4.3mph /  6.9km/h 6mph /  9.7km/h 80% 0in /  0.0mm
01:44 75.9 °F /  24.4 °C 69.4 °F /  20.8 °C 29.9in /  1012.9hPa NE 3.6mph /  5.8km/h 6mph /  9.7km/h 80.1% 0in /  0.0mm
01:49 75.9 °F /  24.4 °C 69.6 °F /  20.9 °C 29.9in /  1012.9hPa NE 3.9mph /  6.2km/h 6.9mph /  11.1km/h 81% 0in /  0.0mm
01:54 75.9 °F /  24.4 °C 69.6 °F /  20.9 °C 29.9in /  1012.8hPa NE 4.3mph /  6.9km/h 7mph /  11.3km/h 81% 0in /  0.0mm
01:59 75.7 °F /  24.3 °C 69.4 °F /  20.8 °C 29.9in /  1012.8hPa NE 4.3mph /  6.9km/h 7mph /  11.3km/h 81% 0in /  0.0mm
02:04 75.7 °F /  24.3 °C 69.8 °F /  21 °C 29.9in /  1012.8hPa NNE 4.3mph /  6.9km/h 6mph /  9.7km/h 81.8% 0in /  0.0mm
02:09 75.7 °F /  24.3 °C 69.8 °F /  21 °C 29.9in /  1012.6hPa NNE 3.9mph /  6.3km/h 5.2mph /  8.4km/h 82% 0in /  0.0mm
02:14 75.6 °F /  24.2 °C 69.6 °F /  20.9 °C 29.9in /  1012.6hPa NE 3.1mph /  5km/h 5mph /  8km/h 82% 0in /  0.0mm
02:19 75.6 °F /  24.2 °C 69.6 °F /  20.9 °C 29.9in /  1012.6hPa NNE 2.7mph /  4.4km/h 4.7mph /  7.6km/h 82% 0in /  0.0mm
02:24 75.6 °F /  24.2 °C 70 °F /  21.1 °C 29.9in /  1012.5hPa NE 2mph /  3.2km/h 5.2mph /  8.4km/h 82.7% 0in /  0.0mm
02:29 75.6 °F /  24.2 °C 70 °F /  21.1 °C 29.9in /  1012.5hPa NNE 2.2mph /  3.5km/h 5mph /  8km/h 83% 0in /  0.0mm
02:34 75.6 °F /  24.2 °C 70 °F /  21.1 °C 29.9in /  1012.5hPa NE 3.1mph /  5km/h 5mph /  8km/h 83% 0in /  0.0mm
02:39 75.6 °F /  24.2 °C 70 °F /  21.1 °C 29.9in /  1012.4hPa NE 2.9mph /  4.6km/h 5.2mph /  8.4km/h 83% 0in /  0.0mm
02:44 75.6 °F /  24.2 °C 70 °F /  21.1 °C 29.9in /  1012.4hPa NE 2.4mph /  3.9km/h 6.2mph /  10km/h 83% 0in /  0.0mm
02:49 75.4 °F /  24.1 °C 70 °F /  21.1 °C 29.9in /  1012.4hPa NE 2.8mph /  4.5km/h 6mph /  9.7km/h 83% 0in /  0.0mm
02:54 75.4 °F /  24.1 °C 70 °F /  21.1 °C 29.9in /  1012.2hPa NE 3.6mph /  5.8km/h 5mph /  8km/h 83% 0in /  0.0mm
02:59 75.4 °F /  24.1 °C 70 °F /  21.1 °C 29.9in /  1012.2hPa NE 3.2mph /  5.2km/h 5mph /  8km/h 83% 0in /  0.0mm
03:04 75.4 °F /  24.1 °C 70 °F /  21.1 °C 29.9in /  1012.2hPa NE 2.4mph /  3.9km/h 4mph /  6.4km/h 83% 0in /  0.0mm
03:09 75.4 °F /  24.1 °C 70 °F /  21.1 °C 29.9in /  1012.0hPa NNE 2.3mph /  3.7km/h 5mph /  8km/h 83% 0in /  0.0mm
03:14 75.4 °F /  24.1 °C 70 °F /  21.1 °C 29.9in /  1012.0hPa NNE 1.8mph /  2.9km/h 3mph /  4.8km/h 83% 0in /  0.0mm
03:19 75.4 °F /  24.1 °C 70 °F /  21.1 °C 29.9in /  1012.2hPa North 1.2mph /  1.9km/h 2mph /  3.2km/h 83% 0in /  0.0mm
03:24 75.4 °F /  24.1 °C 70 °F /  21.1 °C 29.9in /  1012.2hPa Calm   3.1mph /  5km/h 83.1% 0in /  0.0mm
03:29 75.4 °F /  24.1 °C 70 °F /  21.1 °C 29.9in /  1012.2hPa NO 0.5mph /  0.8km/h 3.5mph /  5.6km/h 83.4% 0in /  0.0mm
03:34 75.4 °F /  24.1 °C 70.2 °F /  21.2 °C 29.9in /  1012.2hPa NO 1.4mph /  2.2km/h 4.6mph /  7.4km/h 84% 0in /  0.0mm
03:39 75.4 °F /  24.1 °C 70.2 °F /  21.2 °C 29.9in /  1012.1hPa NO 1.4mph /  2.2km/h 5mph /  8km/h 84% 0in /  0.0mm
03:44 75.4 °F /  24.1 °C 70.2 °F /  21.2 °C 29.9in /  1012.1hPa ONO 1.4mph /  2.2km/h 3mph /  4.8km/h 83.7% 0in /  0.0mm
03:49 75.4 °F /  24.1 °C 70.2 °F /  21.2 °C 29.9in /  1012.1hPa ONO 1.6mph /  2.5km/h 3.5mph /  5.6km/h 83.9% 0in /  0.0mm
03:54 75.2 °F /  24 °C 69.8 °F /  21 °C 29.9in /  1011.9hPa ONO 1.8mph /  2.9km/h 3mph /  4.8km/h 83.2% 0in /  0.0mm
03:59 75.2 °F /  24 °C 69.8 °F /  21 °C 29.9in /  1011.9hPa ONO 1.6mph /  2.6km/h 3.6mph /  5.8km/h 83.4% 0in /  0.0mm
04:04 75 °F /  23.9 °C 70 °F /  21.1 °C 29.9in /  1011.9hPa ONO 1.4mph /  2.2km/h 4mph /  6.4km/h 84% 0in /  0.0mm
04:09 75 °F /  23.9 °C 70 °F /  21.1 °C 29.9in /  1011.9hPa ONO 1mph /  1.6km/h   84% 0in /  0.0mm
04:14 75 °F /  23.9 °C 70 °F /  21.1 °C 29.9in /  1011.9hPa Calm   4.7mph /  7.6km/h 84% 0in /  0.0mm
04:19 75 °F /  23.9 °C 70 °F /  21.1 °C 29.9in /  1011.9hPa ONO 0.7mph /  1.1km/h 5mph /  8km/h 84% 0in /  0.0mm
04:24 75 °F /  23.9 °C 69.8 °F /  21 °C 29.9in /  1011.8hPa ONO 2mph /  3.2km/h 5mph /  8km/h 84% 0in /  0.0mm
04:29 74.8 °F /  23.8 °C 69.6 °F /  20.9 °C 29.9in /  1011.8hPa ONO 1.9mph /  3.1km/h 5mph /  8km/h 84% 0in /  0.0mm
04:34 74.8 °F /  23.8 °C 69.8 °F /  21 °C 29.9in /  1011.8hPa ONO 1.8mph /  2.9km/h 4mph /  6.4km/h 84.3% 0in /  0.0mm
04:39 74.8 °F /  23.8 °C 70 °F /  21.1 °C 29.9in /  1011.8hPa Oeste 1.8mph /  2.9km/h 5.2mph /  8.4km/h 85% 0in /  0.0mm
04:44 74.8 °F /  23.8 °C 70 °F /  21.1 °C 29.9in /  1011.8hPa Oeste 1.8mph /  2.9km/h 5mph /  8km/h 85% 0in /  0.0mm
04:49 74.8 °F /  23.8 °C 70 °F /  21.1 °C 29.9in /  1011.8hPa Oeste 1.7mph /  2.7km/h 4.7mph /  7.6km/h 85% 0in /  0.0mm
04:54 74.8 °F /  23.8 °C 70 °F /  21.1 °C 29.9in /  1011.6hPa OSO 1.4mph /  2.2km/h 5mph /  8km/h 85% 0in /  0.0mm
04:59 74.8 °F /  23.8 °C 70 °F /  21.1 °C 29.9in /  1011.6hPa Oeste 1.7mph /  2.8km/h 5mph /  8km/h 85% 0in /  0.0mm
05:04 75 °F /  23.9 °C 70.2 °F /  21.2 °C 29.9in /  1011.6hPa Oeste 2.4mph /  3.9km/h 5mph /  8km/h 85% 0in /  0.0mm
05:09 75 °F /  23.9 °C 70.2 °F /  21.2 °C 29.9in /  1011.4hPa Oeste 2.2mph /  3.6km/h 5mph /  8km/h 85% 0in /  0.0mm
05:14 75 °F /  23.9 °C 70.2 °F /  21.2 °C 29.9in /  1011.4hPa ONO 2mph /  3.2km/h 3.5mph /  5.6km/h 85% 0in /  0.0mm
05:19 75 °F /  23.9 °C 70.2 °F /  21.2 °C 29.9in /  1011.4hPa OSO 1.8mph /  2.9km/h 4.6mph /  7.4km/h 85% 0in /  0.0mm
05:24 75 °F /  23.9 °C 70.2 °F /  21.2 °C 29.9in /  1011.3hPa OSO 1.4mph /  2.2km/h 5mph /  8km/h 85% 0in /  0.0mm
05:29 75 °F /  23.9 °C 70.2 °F /  21.2 °C 29.9in /  1011.3hPa SSO 1.9mph /  3km/h 5.8mph /  9.3km/h 84.6% 0in /  0.0mm
05:34 75 °F /  23.9 °C 69.6 °F /  20.9 °C 29.9in /  1011.3hPa SSO 3.1mph /  5km/h 8.1mph /  13km/h 83.2% 0in /  0.0mm
05:39 75 °F /  23.9 °C 69.1 °F /  20.6 °C 29.9in /  1011.2hPa Sur 3.7mph /  5.9km/h 8mph /  12.9km/h 82% 0in /  0.0mm
05:44 75 °F /  23.9 °C 69.1 °F /  20.6 °C 29.9in /  1011.2hPa SSO 4.7mph /  7.6km/h 7mph /  11.3km/h 82% 0in /  0.0mm
05:49 75 °F /  23.9 °C 69.1 °F /  20.6 °C 29.9in /  1011.3hPa SO 4.7mph /  7.6km/h 7.4mph /  11.9km/h 82% 0in /  0.0mm
05:54 75 °F /  23.9 °C 69.1 °F /  20.6 °C 29.9in /  1011.3hPa SO 4.7mph /  7.6km/h 7mph /  11.3km/h 82% 0in /  0.0mm
05:59 74.8 °F /  23.8 °C 69.1 °F /  20.6 °C 29.9in /  1011.3hPa SO 4.4mph /  7.1km/h 7mph /  11.3km/h 82% 0in /  0.0mm
06:04 74.8 °F /  23.8 °C 69.1 °F /  20.6 °C 29.9in /  1011.3hPa SO 4mph /  6.5km/h 7mph /  11.3km/h 82% 0in /  0.0mm
06:09 74.8 °F /  23.8 °C 69.1 °F /  20.6 °C 29.9in /  1011.2hPa SO 4mph /  6.5km/h 7.4mph /  11.9km/h 82% 0in /  0.0mm
06:14 74.8 °F /  23.8 °C 69.1 °F /  20.6 °C 29.9in /  1011.2hPa SO 4mph /  6.5km/h 7mph /  11.3km/h 82% 0in /  0.0mm
06:19 74.8 °F /  23.8 °C 69.1 °F /  20.6 °C 29.9in /  1011.3hPa SO 4.1mph /  6.6km/h 7.4mph /  11.9km/h 82% 0in /  0.0mm
06:24 74.7 °F /  23.7 °C 68.7 °F /  20.4 °C 29.9in /  1011.3hPa SSO 4.3mph /  6.9km/h 9.7mph /  15.6km/h 81.8% 0in /  0.0mm
06:29 74.7 °F /  23.7 °C 68.7 °F /  20.4 °C 29.9in /  1011.3hPa SSO 4.6mph /  7.4km/h 10mph /  16.1km/h 82% 0in /  0.0mm
06:34 74.7 °F /  23.7 °C 68.7 °F /  20.4 °C 29.9in /  1011.5hPa SSO 5.2mph /  8.4km/h 8mph /  12.9km/h 82% 0in /  0.0mm
06:39 74.7 °F /  23.7 °C 68.7 °F /  20.4 °C 29.9in /  1011.5hPa SSO 5.2mph /  8.4km/h 8.1mph /  13km/h 82% 0in /  0.0mm
06:44 74.7 °F /  23.7 °C 68.7 °F /  20.4 °C 29.9in /  1011.5hPa SSO 5.2mph /  8.4km/h 8mph /  12.9km/h 82% 0in /  0.0mm
06:49 74.7 °F /  23.7 °C 68.7 °F /  20.4 °C 29.9in /  1011.5hPa OSO 4.9mph /  7.9km/h 7mph /  11.3km/h 82% 0in /  0.0mm
06:54 74.7 °F /  23.7 °C 68.7 °F /  20.4 °C 29.9in /  1011.3hPa OSO 4.3mph /  6.9km/h 5.8mph /  9.3km/h 82% 0in /  0.0mm
06:59 74.7 °F /  23.7 °C 68.7 °F /  20.4 °C 29.9in /  1011.3hPa Sur 3.8mph /  6.1km/h 6mph /  9.7km/h 82% 0in /  0.0mm
07:04 74.7 °F /  23.7 °C 68.7 °F /  20.4 °C 29.9in /  1011.3hPa Sur 2.9mph /  4.7km/h 6mph /  9.7km/h 82% 0in /  0.0mm
07:09 74.7 °F /  23.7 °C 68.7 °F /  20.4 °C 29.9in /  1011.3hPa Oeste 2.7mph /  4.4km/h 5mph /  8km/h 82% 0in /  0.0mm
07:14 74.8 °F /  23.8 °C 68.9 °F /  20.5 °C 29.9in /  1011.3hPa Sur 2.4mph /  3.9km/h 5.2mph /  8.4km/h 82% 0in /  0.0mm
07:19 74.8 °F /  23.8 °C 69.1 °F /  20.6 °C 29.9in /  1011.3hPa Oeste 2.4mph /  3.9km/h 5mph /  8km/h 82% 0in /  0.0mm
07:24 74.8 °F /  23.8 °C 69.1 °F /  20.6 °C 29.9in /  1011.3hPa ONO 2.4mph /  3.9km/h 5mph /  8km/h 82% 0in /  0.0mm
07:29 74.8 °F /  23.8 °C 68.9 °F /  20.5 °C 29.9in /  1011.3hPa NO 2.1mph /  3.3km/h 4.6mph /  7.4km/h 81.9% 0in /  0.0mm
07:34 74.7 °F /  23.7 °C 68.7 °F /  20.4 °C 29.9in /  1011.4hPa NO 1.4mph /  2.2km/h 5mph /  8km/h 81.9% 0in /  0.0mm
07:39 74.7 °F /  23.7 °C 68.7 °F /  20.4 °C 29.9in /  1011.4hPa NO 1.4mph /  2.2km/h 5mph /  8km/h 82% 0in /  0.0mm
07:44 74.5 °F /  23.6 °C 68.5 °F /  20.3 °C 29.9in /  1011.4hPa NO 1.4mph /  2.2km/h 6.4mph /  10.3km/h 82% 0in /  0.0mm
07:49 74.5 °F /  23.6 °C 68.5 °F /  20.3 °C 29.9in /  1011.7hPa SE 1.6mph /  2.6km/h 7.4mph /  11.9km/h 82% 0in /  0.0mm
07:54 74.5 °F /  23.6 °C 68.5 °F /  20.3 °C 29.9in /  1011.7hPa SE 2mph /  3.2km/h 7.4mph /  11.9km/h 82% 0in /  0.0mm
07:59 74.3 °F /  23.5 °C 68.4 °F /  20.2 °C 29.9in /  1011.7hPa SE 2.8mph /  4.5km/h 7mph /  11.3km/h 82% 0in /  0.0mm
08:04 74.5 °F /  23.6 °C 68.5 °F /  20.3 °C 29.9in /  1011.8hPa SSE 4mph /  6.5km/h 6mph /  9.7km/h 82% 0in /  0.0mm
08:09 74.7 °F /  23.7 °C 68.7 °F /  20.4 °C 29.9in /  1011.8hPa SSE 3.3mph /  5.3km/h 5mph /  8km/h 82% 0in /  0.0mm
08:14 74.8 °F /  23.8 °C 68.9 °F /  20.5 °C 29.9in /  1011.8hPa SSE 2mph /  3.2km/h 4mph /  6.4km/h 82% 0in /  0.0mm
08:19 75 °F /  23.9 °C 69.1 °F /  20.6 °C 29.9in /  1012.0hPa SSO 2mph /  3.2km/h 5mph /  8km/h 81.8% 0in /  0.0mm
08:24 75.4 °F /  24.1 °C 69.1 °F /  20.6 °C 29.9in /  1012.0hPa SSE 2mph /  3.2km/h 6.9mph /  11.1km/h 81% 0in /  0.0mm
08:29 75.6 °F /  24.2 °C 69.1 °F /  20.6 °C 29.9in /  1012.0hPa SSE 2.5mph /  4.1km/h 7mph /  11.3km/h 80.5% 0in /  0.0mm
08:34 75.7 °F /  24.3 °C 69.4 °F /  20.8 °C 29.9in /  1012.2hPa SSE 3.6mph /  5.8km/h 7mph /  11.3km/h 80.8% 0in /  0.0mm
08:39 76.1 °F /  24.5 °C 69.4 °F /  20.8 °C 29.9in /  1012.2hPa SE 3.7mph /  6km/h 8.5mph /  13.7km/h 80.1% 0in /  0.0mm
08:44 76.3 °F /  24.6 °C 69.6 °F /  20.9 °C 29.9in /  1012.2hPa SSE 4mph /  6.5km/h 9.2mph /  14.8km/h 79.8% 0in /  0.0mm
08:49 76.5 °F /  24.7 °C 69.4 °F /  20.8 °C 29.9in /  1012.3hPa SSE 4.8mph /  7.7km/h 9mph /  14.5km/h 79.3% 0in /  0.0mm
08:54 76.6 °F /  24.8 °C 69.1 °F /  20.6 °C 29.9in /  1012.3hPa SSE 6.2mph /  10km/h 8.1mph /  13km/h 77.6% 0in /  0.0mm
08:59 77.2 °F /  25.1 °C 69.1 °F /  20.6 °C 29.9in /  1012.3hPa SSE 5.7mph /  9.2km/h 8mph /  12.9km/h 76.2% 0in /  0.0mm
09:04 77.5 °F /  25.3 °C 68.9 °F /  20.5 °C 29.9in /  1012.6hPa SE 4.7mph /  7.6km/h 6mph /  9.7km/h 75.1% 0in /  0.0mm
09:09 77.9 °F /  25.5 °C 68.5 °F /  20.3 °C 29.9in /  1012.6hPa SSE 4.3mph /  6.9km/h 6mph /  9.7km/h 73.2% 0in /  0.0mm
09:14 78.3 °F /  25.7 °C 68.2 °F /  20.1 °C 29.9in /  1012.6hPa SSE 3.6mph /  5.8km/h 6mph /  9.7km/h 71.2% 0in /  0.0mm
09:19 78.8 °F /  26 °C 68.2 °F /  20.1 °C 29.9in /  1012.7hPa Sur 3mph /  4.8km/h 4.7mph /  7.6km/h 69.8% 0in /  0.0mm
09:24 79.3 °F /  26.3 °C 68 °F /  20 °C 29.9in /  1012.7hPa Oeste 1.8mph /  2.9km/h 5.2mph /  8.4km/h 68.4% 0in /  0.0mm
09:29 79.7 °F /  26.5 °C 68 °F /  20 °C 29.9in /  1012.7hPa ONO 1.9mph /  3km/h 5mph /  8km/h 67.6% 0in /  0.0mm
09:34 80.2 °F /  26.8 °C 68 °F /  20 °C 29.9in /  1012.7hPa NO 2mph /  3.2km/h 3.6mph /  5.8km/h 66.2% 0in /  0.0mm
09:39 81 °F /  27.2 °C 68.4 °F /  20.2 °C 29.9in /  1012.6hPa NO 1.6mph /  2.5km/h 5.4mph /  8.7km/h 65.6% 0in /  0.0mm
09:44 81.1 °F /  27.3 °C 67.8 °F /  19.9 °C 29.9in /  1012.6hPa Calm   6.2mph /  10km/h 64% 0in /  0.0mm
09:49 81 °F /  27.2 °C 67.6 °F /  19.8 °C 29.9in /  1012.8hPa SO 0.7mph /  1.1km/h 6mph /  9.7km/h 64.1% 0in /  0.0mm
09:54 81.1 °F /  27.3 °C 67.8 °F /  19.9 °C 29.9in /  1012.8hPa ESE 3.1mph /  5km/h 5mph /  8km/h 64.2% 0in /  0.0mm
09:59 81.9 °F /  27.7 °C 68.2 °F /  20.1 °C 29.9in /  1012.8hPa NE 2.8mph /  4.5km/h 5mph /  8km/h 63.4% 0in /  0.0mm
10:04 82.6 °F /  28.1 °C 68.4 °F /  20.2 °C 29.9in /  1012.9hPa ENE 1.8mph /  2.9km/h 5.4mph /  8.7km/h 62.1% 0in /  0.0mm
10:09 82.8 °F /  28.2 °C 68.2 °F /  20.1 °C 29.9in /  1012.9hPa ENE 2mph /  3.2km/h 6mph /  9.7km/h 61.7% 0in /  0.0mm
10:14 82.8 °F /  28.2 °C 68.2 °F /  20.1 °C 29.9in /  1012.9hPa NE 2.4mph /  3.9km/h 5mph /  8km/h 61.8% 0in /  0.0mm
10:19 82.8 °F /  28.2 °C 68 °F /  20 °C 29.9in /  1013.0hPa North 2.4mph /  3.9km/h 5.8mph /  9.3km/h 61.1% 0in /  0.0mm
10:24 82.9 °F /  28.3 °C 68.2 °F /  20.1 °C 29.9in /  1013.0hPa NNO 2.4mph /  3.9km/h 6mph /  9.7km/h 61.1% 0in /  0.0mm
10:29 82.9 °F /  28.3 °C 68.2 °F /  20.1 °C 29.9in /  1013.0hPa North 2.5mph /  4.1km/h 6.4mph /  10.3km/h 61% 0in /  0.0mm
10:34 82.9 °F /  28.3 °C 68 °F /  20 °C 29.9in /  1013.0hPa NE 2.9mph /  4.7km/h 7mph /  11.3km/h 60.9% 0in /  0.0mm
10:39 82.9 °F /  28.3 °C 68.2 °F /  20.1 °C 29.9in /  1012.9hPa NE 3mph /  4.8km/h 7mph /  11.3km/h 61% 0in /  0.0mm
10:44 83.3 °F /  28.5 °C 68.4 °F /  20.2 °C 29.9in /  1012.9hPa ENE 3.1mph /  5km/h 6mph /  9.7km/h 60.6% 0in /  0.0mm
10:49 83.8 °F /  28.8 °C 68.4 °F /  20.2 °C 29.9in /  1013.0hPa NNO 2.7mph /  4.4km/h 5.9mph /  9.5km/h 60% 0in /  0.0mm
10:54 84 °F /  28.9 °C 68.4 °F /  20.2 °C 29.9in /  1013.0hPa NNO 2mph /  3.2km/h 6mph /  9.7km/h 59.4% 0in /  0.0mm
10:59 84 °F /  28.9 °C 68.4 °F /  20.2 °C 29.9in /  1013.0hPa NO 2.4mph /  3.8km/h 5.8mph /  9.3km/h 59.7% 0in /  0.0mm
11:04 84 °F /  28.9 °C 68.7 °F /  20.4 °C 29.9in /  1013.0hPa NNE 2.9mph /  4.7km/h 6mph /  9.7km/h 60.1% 0in /  0.0mm
11:09 84.6 °F /  29.2 °C 68.9 °F /  20.5 °C 29.9in /  1013.0hPa North 2.5mph /  4.1km/h 5.4mph /  8.7km/h 59.7% 0in /  0.0mm
11:14 84.7 °F /  29.3 °C 68.7 °F /  20.4 °C 29.9in /  1013.0hPa NNO 2mph /  3.2km/h 6mph /  9.7km/h 59% 0in /  0.0mm
11:19 84.9 °F /  29.4 °C 68.9 °F /  20.5 °C 29.9in /  1013.0hPa NNE 2.5mph /  4.1km/h 7.4mph /  11.9km/h 59% 0in /  0.0mm
11:24 84.9 °F /  29.4 °C 68.9 °F /  20.5 °C 29.9in /  1012.9hPa North 3.6mph /  5.8km/h 7mph /  11.3km/h 59% 0in /  0.0mm
11:29 85.1 °F /  29.5 °C 69.1 °F /  20.6 °C 29.9in /  1012.9hPa ONO 3.2mph /  5.1km/h 6mph /  9.7km/h 58.6% 0in /  0.0mm
11:34 85.5 °F /  29.7 °C 68.9 °F /  20.5 °C 29.9in /  1013.0hPa NNO 2.4mph /  3.9km/h 7.4mph /  11.9km/h 58% 0in /  0.0mm
11:39 85.6 °F /  29.8 °C 69.1 °F /  20.6 °C 29.9in /  1013.0hPa NE 2.5mph /  4.1km/h 7mph /  11.3km/h 57.8% 0in /  0.0mm
11:44 86 °F /  30 °C 68.9 °F /  20.5 °C 29.9in /  1013.0hPa ENE 2.9mph /  4.7km/h 6.2mph /  10km/h 57% 0in /  0.0mm
11:49 86.4 °F /  30.2 °C 69.3 °F /  20.7 °C 29.9in /  1013.0hPa ENE 2.5mph /  4.1km/h 8.1mph /  13km/h 57% 0in /  0.0mm
11:54 86.5 °F /  30.3 °C 69.4 °F /  20.8 °C 29.9in /  1012.9hPa NE 2mph /  3.2km/h 9.7mph /  15.6km/h 56.7% 0in /  0.0mm
11:59 86.4 °F /  30.2 °C 69.1 °F /  20.6 °C 29.9in /  1012.9hPa NE 3.5mph /  5.6km/h 12.7mph /  20.4km/h 56.7% 0in /  0.0mm
12:04 86 °F /  30 °C 68.9 °F /  20.5 °C 29.9in /  1012.9hPa NNO 5.9mph /  9.5km/h 13mph /  20.9km/h 56.8% 0in /  0.0mm
12:09 86.2 °F /  30.1 °C 69.1 °F /  20.6 °C 29.9in /  1012.8hPa NNO 5mph /  8.1km/h 8.5mph /  13.7km/h 56.8% 0in /  0.0mm
12:14 86.5 °F /  30.3 °C 68.9 °F /  20.5 °C 29.9in /  1012.8hPa ENE 3.6mph /  5.8km/h 12.7mph /  20.4km/h 56% 0in /  0.0mm
12:19 86.7 °F /  30.4 °C 68.7 °F /  20.4 °C 29.9in /  1012.8hPa NNE 4.2mph /  6.8km/h 13mph /  20.9km/h 55.2% 0in /  0.0mm
12:24 87.3 °F /  30.7 °C 69.3 °F /  20.7 °C 29.9in /  1012.8hPa NNE 5.4mph /  8.7km/h 9.7mph /  15.6km/h 55.4% 0in /  0.0mm
12:29 87.4 °F /  30.8 °C 69.4 °F /  20.8 °C 29.9in /  1012.8hPa Este 4.9mph /  7.9km/h 10.4mph /  16.7km/h 55% 0in /  0.0mm
12:34 87.4 °F /  30.8 °C 69.3 °F /  20.7 °C 29.9in /  1012.8hPa NNE 4mph /  6.5km/h 10mph /  16.1km/h 55% 0in /  0.0mm
12:39 87.4 °F /  30.8 °C 69.3 °F /  20.7 °C 29.9in /  1012.6hPa NE 4.7mph /  7.6km/h 10.4mph /  16.7km/h 55.1% 0in /  0.0mm
12:44 87.4 °F /  30.8 °C 69.3 °F /  20.7 °C 29.9in /  1012.6hPa NE 5.9mph /  9.5km/h 10mph /  16.1km/h 54.9% 0in /  0.0mm
12:49 87.8 °F /  31 °C 69.1 °F /  20.6 °C 29.9in /  1012.6hPa ENE 5.7mph /  9.2km/h 10mph /  16.1km/h 54% 0in /  0.0mm
12:54 88.2 °F /  31.2 °C 69.3 °F /  20.7 °C 29.9in /  1012.6hPa NE 5.4mph /  8.7km/h 10.7mph /  17.2km/h 53.9% 0in /  0.0mm
12:59 88.2 °F /  31.2 °C 69.3 °F /  20.7 °C 29.9in /  1012.6hPa NE 5.6mph /  9km/h 11mph /  17.7km/h 53.6% 0in /  0.0mm
13:04 88.5 °F /  31.4 °C 69.3 °F /  20.7 °C 29.9in /  1012.6hPa NNE 5.9mph /  9.5km/h 10mph /  16.1km/h 53.2% 0in /  0.0mm
13:09 88.9 °F /  31.6 °C 69.3 °F /  20.7 °C 29.9in /  1012.3hPa NE 5.2mph /  8.4km/h 10mph /  16.1km/h 52.6% 0in /  0.0mm
13:14 88.7 °F /  31.5 °C 69.4 °F /  20.8 °C 29.9in /  1012.3hPa NE 4mph /  6.5km/h 13mph /  20.9km/h 53% 0in /  0.0mm
13:19 88.9 °F /  31.6 °C 69.4 °F /  20.8 °C 29.9in /  1012.3hPa NE 5.1mph /  8.2km/h 15.2mph /  24.5km/h 52.7% 0in /  0.0mm
13:24 89.1 °F /  31.7 °C 69.3 °F /  20.7 °C 29.9in /  1012.0hPa ENE 6.9mph /  11.1km/h 15mph /  24.1km/h 52.1% 0in /  0.0mm
13:29 89.1 °F /  31.7 °C 69.1 °F /  20.6 °C 29.9in /  1012.0hPa NE 6.7mph /  10.8km/h 12.7mph /  20.4km/h 52% 0in /  0.0mm
13:34 89.1 °F /  31.7 °C 69.3 °F /  20.7 °C 29.9in /  1012.0hPa NE 6.4mph /  10.3km/h 13.8mph /  22.2km/h 52% 0in /  0.0mm
13:39 89.1 °F /  31.7 °C 69.1 °F /  20.6 °C 29.9in /  1011.8hPa NNE 6.3mph /  10.2km/h 14mph /  22.5km/h 52% 0in /  0.0mm
13:44 89.1 °F /  31.7 °C 69.1 °F /  20.6 °C 29.9in /  1011.8hPa North 6.2mph /  10km/h 10mph /  16.1km/h 52% 0in /  0.0mm
13:49 89.4 °F /  31.9 °C 69.6 °F /  20.9 °C 29.9in /  1011.8hPa North 5.7mph /  9.1km/h 9.2mph /  14.8km/h 52% 0in /  0.0mm
13:54 90 °F /  32.2 °C 69.6 °F /  20.9 °C 29.9in /  1011.8hPa NE 4.7mph /  7.6km/h 13.5mph /  21.7km/h 51.2% 0in /  0.0mm
13:59 90.1 °F /  32.3 °C 69.6 °F /  20.9 °C 29.9in /  1011.8hPa ENE 5mph /  8km/h 14mph /  22.5km/h 50.8% 0in /  0.0mm
14:04 90.1 °F /  32.3 °C 69.4 °F /  20.8 °C 29.9in /  1011.8hPa NE 5.4mph /  8.7km/h 12mph /  19.3km/h 50.8% 0in /  0.0mm
14:09 90.3 °F /  32.4 °C 69.6 °F /  20.9 °C 29.9in /  1011.6hPa NNE 5.4mph /  8.7km/h 13.8mph /  22.2km/h 51% 0in /  0.0mm
14:14 90.3 °F /  32.4 °C 70 °F /  21.1 °C 29.9in /  1011.6hPa NE 5.4mph /  8.7km/h 14mph /  22.5km/h 51.3% 0in /  0.0mm
14:19 90.7 °F /  32.6 °C 70.3 °F /  21.3 °C 29.9in /  1011.6hPa NNE 5.2mph /  8.3km/h 9.7mph /  15.6km/h 51.3% 0in /  0.0mm
14:24 91 °F /  32.8 °C 70.2 °F /  21.2 °C 29.9in /  1011.4hPa NNE 4.7mph /  7.6km/h 16.1mph /  25.9km/h 50.4% 0in /  0.0mm
14:29 91 °F /  32.8 °C 70.3 °F /  21.3 °C 29.9in /  1011.4hPa NNE 5.5mph /  8.8km/h 16mph /  25.7km/h 50.9% 0in /  0.0mm
14:34 91.2 °F /  32.9 °C 70 °F /  21.1 °C 29.9in /  1011.4hPa NE 6.9mph /  11.1km/h 14.5mph /  23.3km/h 50% 0in /  0.0mm
14:39 91 °F /  32.8 °C 69.8 °F /  21 °C 29.9in /  1011.2hPa NNE 7.3mph /  11.8km/h 15mph /  24.1km/h 50% 0in /  0.0mm
14:44 91.2 °F /  32.9 °C 70 °F /  21.1 °C 29.9in /  1011.2hPa NE 8.1mph /  13km/h 15mph /  24.1km/h 50% 0in /  0.0mm
14:49 91.4 °F /  33 °C 70.2 °F /  21.2 °C 29.9in /  1011.2hPa NNE 7.3mph /  11.8km/h 14mph /  22.5km/h 50% 0in /  0.0mm
14:54 91.6 °F /  33.1 °C 70.3 °F /  21.3 °C 29.9in /  1011.1hPa NNE 5.9mph /  9.5km/h 12.3mph /  19.8km/h 50.1% 0in /  0.0mm
14:59 91.6 °F /  33.1 °C 70.3 °F /  21.3 °C 29.9in /  1011.1hPa NNE 6.1mph /  9.8km/h 13mph /  20.9km/h 50.1% 0in /  0.0mm
15:04 91.8 °F /  33.2 °C 70.5 °F /  21.4 °C 29.9in /  1011.1hPa NE 6.4mph /  10.3km/h 13.5mph /  21.7km/h 50% 0in /  0.0mm
15:09 91.9 °F /  33.3 °C 70.7 °F /  21.5 °C 29.9in /  1010.9hPa NE 6.4mph /  10.3km/h 14mph /  22.5km/h 49.9% 0in /  0.0mm
15:14 92.1 °F /  33.4 °C 70.7 °F /  21.5 °C 29.9in /  1010.9hPa NNE 6.4mph /  10.3km/h 14mph /  22.5km/h 49.8% 0in /  0.0mm
15:19 92.1 °F /  33.4 °C 70.7 °F /  21.5 °C 29.9in /  1010.9hPa NNE 6.8mph /  10.9km/h 13mph /  20.9km/h 49.9% 0in /  0.0mm
15:24 92.1 °F /  33.4 °C 70.9 °F /  21.6 °C 29.9in /  1010.8hPa NE 7.4mph /  11.9km/h 13.8mph /  22.2km/h 50% 0in /  0.0mm
15:29 92.1 °F /  33.4 °C 70.9 °F /  21.6 °C 29.9in /  1010.8hPa NE 7.5mph /  12km/h 15.9mph /  25.6km/h 50% 0in /  0.0mm
15:34 91.9 °F /  33.3 °C 71.1 °F /  21.7 °C 29.9in /  1010.8hPa NE 7.6mph /  12.2km/h 16.1mph /  25.9km/h 50.8% 0in /  0.0mm
15:39 91.9 °F /  33.3 °C 71.2 °F /  21.8 °C 29.8in /  1010.7hPa NNE 8mph /  12.8km/h 16mph /  25.7km/h 51% 0in /  0.0mm
15:44 92.1 °F /  33.4 °C 71.2 °F /  21.8 °C 29.8in /  1010.7hPa NE 8.5mph /  13.7km/h 15mph /  24.1km/h 50.7% 0in /  0.0mm
15:49 92.7 °F /  33.7 °C 70.9 °F /  21.6 °C 29.8in /  1010.7hPa NE 8.1mph /  13km/h 14mph /  22.5km/h 49.4% 0in /  0.0mm
15:54 92.7 °F /  33.7 °C 71.4 °F /  21.9 °C 29.8in /  1010.5hPa NE 7.4mph /  11.9km/h 18.4mph /  29.6km/h 50.2% 0in /  0.0mm
15:59 92.7 °F /  33.7 °C 71.2 °F /  21.8 °C 29.8in /  1010.5hPa NE 8.3mph /  13.4km/h 18.4mph /  29.6km/h 50% 0in /  0.0mm
16:04 92.7 °F /  33.7 °C 71.2 °F /  21.8 °C 29.8in /  1010.5hPa NE 9.7mph /  15.6km/h 17.5mph /  28.2km/h 50% 0in /  0.0mm
16:09 92.7 °F /  33.7 °C 71.2 °F /  21.8 °C 29.8in /  1010.2hPa NNE 9.8mph /  15.8km/h 19.7mph /  31.7km/h 50% 0in /  0.0mm
16:14 92.7 °F /  33.7 °C 71.2 °F /  21.8 °C 29.8in /  1010.2hPa NE 10mph /  16.1km/h 20mph /  32.2km/h 50% 0in /  0.0mm
16:19 92.8 °F /  33.8 °C 71.2 °F /  21.8 °C 29.8in /  1010.2hPa NE 10.3mph /  16.5km/h 16.1mph /  25.9km/h 49.5% 0in /  0.0mm
16:24 93 °F /  33.9 °C 71.1 °F /  21.7 °C 29.8in /  1010.1hPa NE 10.7mph /  17.2km/h 18.4mph /  29.6km/h 49.2% 0in /  0.0mm
16:29 93 °F /  33.9 °C 71.1 °F /  21.7 °C 29.8in /  1010.1hPa NE 10.7mph /  17.2km/h 18.5mph /  29.8km/h 49% 0in /  0.0mm
16:34 93.6 °F /  34.2 °C 71.1 °F /  21.7 °C 29.8in /  1010.1hPa ESE 10.7mph /  17.2km/h 19mph /  30.6km/h 48.2% 0in /  0.0mm
16:39 93.7 °F /  34.3 °C 70.7 °F /  21.5 °C 29.8in /  1009.9hPa SE 9.9mph /  16km/h 17.3mph /  27.8km/h 47.3% 0in /  0.0mm
16:44 93.7 °F /  34.3 °C 70.7 °F /  21.5 °C 29.8in /  1009.9hPa ESE 8.7mph /  14km/h 17mph /  27.4km/h 47.6% 0in /  0.0mm
16:49 93.6 °F /  34.2 °C 70.9 °F /  21.6 °C 29.8in /  1009.9hPa SE 9.3mph /  14.9km/h 17.3mph /  27.8km/h 47.9% 0in /  0.0mm
16:54 93.4 °F /  34.1 °C 70.7 °F /  21.5 °C 29.8in /  1009.9hPa SE 10.2mph /  16.4km/h 18.5mph /  29.8km/h 47.8% 0in /  0.0mm
16:59 93.4 °F /  34.1 °C 70.7 °F /  21.5 °C 29.8in /  1009.9hPa SE 10.1mph /  16.3km/h 19mph /  30.6km/h 48% 0in /  0.0mm
17:04 93.4 °F /  34.1 °C 70.2 °F /  21.2 °C 29.8in /  1009.9hPa SE 10mph /  16.1km/h 19mph /  30.6km/h 47% 0in /  0.0mm
17:09 93.2 °F /  34 °C 70 °F /  21.1 °C 29.8in /  1009.8hPa SE 9.7mph /  15.6km/h 19mph /  30.6km/h 47% 0in /  0.0mm
17:14 93 °F /  33.9 °C 69.8 °F /  21 °C 29.8in /  1009.8hPa ESE 9.2mph /  14.8km/h 16mph /  25.7km/h 47% 0in /  0.0mm
17:19 93 °F /  33.9 °C 69.6 °F /  20.9 °C 29.8in /  1009.8hPa SE 9.2mph /  14.8km/h 15mph /  24.1km/h 46.8% 0in /  0.0mm
17:24 93 °F /  33.9 °C 69.3 °F /  20.7 °C 29.8in /  1009.7hPa SE 9.2mph /  14.8km/h 17.5mph /  28.2km/h 46% 0in /  0.0mm
17:29 93 °F /  33.9 °C 68.9 °F /  20.5 °C 29.8in /  1009.7hPa SE 9.4mph /  15.1km/h 17mph /  27.4km/h 45.6% 0in /  0.0mm
17:34 93.4 °F /  34.1 °C 68.5 °F /  20.3 °C 29.8in /  1009.7hPa ESE 9.7mph /  15.6km/h 15mph /  24.1km/h 44.7% 0in /  0.0mm
17:39 93.4 °F /  34.1 °C 68 °F /  20 °C 29.8in /  1009.6hPa SE 9.1mph /  14.7km/h 15mph /  24.1km/h 43.7% 0in /  0.0mm
17:44 93.6 °F /  34.2 °C 68 °F /  20 °C 29.8in /  1009.6hPa ESE 8.1mph /  13km/h 15mph /  24.1km/h 43.5% 0in /  0.0mm
17:49 93.4 °F /  34.1 °C 67.5 °F /  19.7 °C 29.8in /  1009.6hPa ESE 8.1mph /  13km/h 15mph /  24.1km/h 43% 0in /  0.0mm
17:54 93 °F /  33.9 °C 67.1 °F /  19.5 °C 29.8in /  1009.6hPa SE 8.1mph /  13km/h 15mph /  24.1km/h 42.9% 0in /  0.0mm
17:59 92.8 °F /  33.8 °C 67.1 °F /  19.5 °C 29.8in /  1009.6hPa SE 8.3mph /  13.4km/h 15.2mph /  24.5km/h 43% 0in /  0.0mm
18:04 92.8 °F /  33.8 °C 67.6 °F /  19.8 °C 29.8in /  1009.6hPa SE 8.7mph /  14km/h 15.9mph /  25.6km/h 44% 0in /  0.0mm
18:09 92.8 °F /  33.8 °C 67.6 °F /  19.8 °C 29.8in /  1009.6hPa SE 8.9mph /  14.3km/h 16.8mph /  27km/h 43.9% 0in /  0.0mm
18:14 92.8 °F /  33.8 °C 67.8 °F /  19.9 °C 29.8in /  1009.6hPa SE 9.2mph /  14.8km/h 17mph /  27.4km/h 44% 0in /  0.0mm
18:19 92.8 °F /  33.8 °C 67.8 °F /  19.9 °C 29.8in /  1009.6hPa SE 8.9mph /  14.4km/h 13.8mph /  22.2km/h 44.2% 0in /  0.0mm
18:24 92.7 °F /  33.7 °C 68.2 °F /  20.1 °C 29.8in /  1009.6hPa SE 8.5mph /  13.7km/h 15.9mph /  25.6km/h 45% 0in /  0.0mm
18:29 92.1 °F /  33.4 °C 68.4 °F /  20.2 °C 29.8in /  1009.6hPa SE 8.8mph /  14.1km/h 16.1mph /  25.9km/h 46% 0in /  0.0mm
18:34 92.1 °F /  33.4 °C 68.5 °F /  20.3 °C 29.8in /  1009.6hPa SE 9.2mph /  14.8km/h 15mph /  24.1km/h 46% 0in /  0.0mm
18:39 91.9 °F /  33.3 °C 68.7 °F /  20.4 °C 29.8in /  1009.5hPa SE 8.9mph /  14.4km/h 15mph /  24.1km/h 46.9% 0in /  0.0mm
18:44 91.9 °F /  33.3 °C 68.7 °F /  20.4 °C 29.8in /  1009.5hPa SE 8.5mph /  13.7km/h 15mph /  24.1km/h 47% 0in /  0.0mm
18:49 91.9 °F /  33.3 °C 68.7 °F /  20.4 °C 29.8in /  1009.5hPa SE 8.6mph /  13.8km/h 15mph /  24.1km/h 47% 0in /  0.0mm
18:54 91.9 °F /  33.3 °C 69.1 °F /  20.6 °C 29.8in /  1009.4hPa ESE 8.7mph /  14km/h 14mph /  22.5km/h 47.3% 0in /  0.0mm
18:59 91.9 °F /  33.3 °C 69.6 °F /  20.9 °C 29.8in /  1009.4hPa SE 8.4mph /  13.6km/h 13.8mph /  22.2km/h 48.4% 0in /  0.0mm
19:04 91.9 °F /  33.3 °C 69.6 °F /  20.9 °C 29.8in /  1009.5hPa SE 8.1mph /  13km/h 14mph /  22.5km/h 48.4% 0in /  0.0mm
19:09 91.9 °F /  33.3 °C 69.6 °F /  20.9 °C 29.8in /  1009.5hPa SE 8.1mph /  13km/h 14mph /  22.5km/h 48.6% 0in /  0.0mm
19:14 91.8 °F /  33.2 °C 69.6 °F /  20.9 °C 29.8in /  1009.5hPa ESE 8.1mph /  13km/h 14mph /  22.5km/h 48.5% 0in /  0.0mm
19:19 91.8 °F /  33.2 °C 69.4 °F /  20.8 °C 29.8in /  1009.5hPa ESE 7.8mph /  12.6km/h 13.8mph /  22.2km/h 48.4% 0in /  0.0mm
19:24 91.6 °F /  33.1 °C 69.6 °F /  20.9 °C 29.8in /  1009.5hPa SE 7.4mph /  11.9km/h 14mph /  22.5km/h 48.8% 0in /  0.0mm
19:29 91.4 °F /  33 °C 69.6 °F /  20.9 °C 29.8in /  1009.5hPa ESE 7.4mph /  11.9km/h 14mph /  22.5km/h 49% 0in /  0.0mm
19:34 91.2 °F /  32.9 °C 69.6 °F /  20.9 °C 29.8in /  1009.6hPa ESE 7.4mph /  11.9km/h 12.7mph /  20.4km/h 49.4% 0in /  0.0mm
19:39 91 °F /  32.8 °C 69.8 °F /  21 °C 29.8in /  1009.6hPa SE 7.5mph /  12km/h 13mph /  20.9km/h 50% 0in /  0.0mm
19:44 90.9 °F /  32.7 °C 70.2 °F /  21.2 °C 29.8in /  1009.6hPa ESE 7.6mph /  12.2km/h 13.8mph /  22.2km/h 51% 0in /  0.0mm
19:49 90.5 °F /  32.5 °C 70.3 °F /  21.3 °C 29.8in /  1009.8hPa ESE 7.8mph /  12.5km/h 14mph /  22.5km/h 51.8% 0in /  0.0mm
19:54 90.3 °F /  32.4 °C 70.3 °F /  21.3 °C 29.8in /  1009.8hPa ESE 8.1mph /  13km/h 15mph /  24.1km/h 52% 0in /  0.0mm
19:59 90 °F /  32.2 °C 70.5 °F /  21.4 °C 29.8in /  1009.8hPa ESE 8.3mph /  13.4km/h 15mph /  24.1km/h 52.9% 0in /  0.0mm
20:04 89.8 °F /  32.1 °C 70.7 °F /  21.5 °C 29.8in /  1009.8hPa ESE 8.7mph /  14km/h 15.2mph /  24.5km/h 53.7% 0in /  0.0mm
20:09 89.4 °F /  31.9 °C 70.7 °F /  21.5 °C 29.8in /  1009.8hPa ESE 8.7mph /  14km/h 15mph /  24.1km/h 54% 0in /  0.0mm
20:14 89.2 °F /  31.8 °C 70.9 °F /  21.6 °C 29.8in /  1009.8hPa ESE 8.7mph /  14km/h 14mph /  22.5km/h 54.8% 0in /  0.0mm
20:19 89.1 °F /  31.7 °C 70.9 °F /  21.6 °C 29.8in /  1009.9hPa ESE 8.7mph /  14km/h 14mph /  22.5km/h 55.1% 0in /  0.0mm
20:24 88.7 °F /  31.5 °C 71.1 °F /  21.7 °C 29.8in /  1009.9hPa ESE 8.7mph /  14km/h 14mph /  22.5km/h 56% 0in /  0.0mm
20:29 88.3 °F /  31.3 °C 71.1 °F /  21.7 °C 29.8in /  1009.9hPa ESE 8.9mph /  14.3km/h 14mph /  22.5km/h 56.6% 0in /  0.0mm
20:34 88.3 °F /  31.3 °C 71.1 °F /  21.7 °C 29.8in /  1010.1hPa ESE 9.2mph /  14.8km/h 14mph /  22.5km/h 57% 0in /  0.0mm
20:39 88.2 °F /  31.2 °C 70.9 °F /  21.6 °C 29.8in /  1010.1hPa ESE 8.9mph /  14.4km/h 13mph /  20.9km/h 57% 0in /  0.0mm
20:44 88 °F /  31.1 °C 71.2 °F /  21.8 °C 29.8in /  1010.1hPa ESE 8.5mph /  13.7km/h 13mph /  20.9km/h 57.9% 0in /  0.0mm
20:49 87.8 °F /  31 °C 71.1 °F /  21.7 °C 29.8in /  1010.2hPa ESE 8.1mph /  13km/h 13mph /  20.9km/h 58% 0in /  0.0mm
20:54 87.4 °F /  30.8 °C 71.1 °F /  21.7 °C 29.8in /  1010.2hPa ESE 7.4mph /  11.9km/h 12mph /  19.3km/h 58.5% 0in /  0.0mm
20:59 87.3 °F /  30.7 °C 71.1 °F /  21.7 °C 29.8in /  1010.2hPa ESE 7.4mph /  11.9km/h 14mph /  22.5km/h 59% 0in /  0.0mm
21:04 86.9 °F /  30.5 °C 71.2 °F /  21.8 °C 29.8in /  1010.4hPa ESE 7.4mph /  11.9km/h 14mph /  22.5km/h 59.9% 0in /  0.0mm
21:09 86.7 °F /  30.4 °C 71.1 °F /  21.7 °C 29.8in /  1010.4hPa ESE 7mph /  11.3km/h 10.7mph /  17.2km/h 60% 0in /  0.0mm
21:14 86.5 °F /  30.3 °C 71.1 °F /  21.7 °C 29.8in /  1010.4hPa ENE 6.4mph /  10.3km/h 11mph /  17.7km/h 60.3% 0in /  0.0mm
21:19 86.4 °F /  30.2 °C 71.2 °F /  21.8 °C 29.8in /  1010.7hPa NE 5.5mph /  8.8km/h 6.9mph /  11.1km/h 61% 0in /  0.0mm
21:24 86 °F /  30 °C 71.1 °F /  21.7 °C 29.8in /  1010.7hPa NNE 3.6mph /  5.8km/h 11.8mph /  19km/h 61.1% 0in /  0.0mm
21:29 85.3 °F /  29.6 °C 70.7 °F /  21.5 °C 29.8in /  1010.7hPa NNE 4.7mph /  7.6km/h 12mph /  19.3km/h 62% 0in /  0.0mm
21:34 84.4 °F /  29.1 °C 70.3 °F /  21.3 °C 29.9in /  1010.9hPa NE 6.9mph /  11.1km/h 13mph /  20.9km/h 62.8% 0in /  0.0mm
21:39 83.8 °F /  28.8 °C 70.5 °F /  21.4 °C 29.9in /  1010.9hPa NE 7.5mph /  12.1km/h 13.8mph /  22.2km/h 64.2% 0in /  0.0mm
21:44 83.7 °F /  28.7 °C 70.5 °F /  21.4 °C 29.9in /  1010.9hPa NE 8.5mph /  13.7km/h 14mph /  22.5km/h 65% 0in /  0.0mm
21:49 83.1 °F /  28.4 °C 70.5 °F /  21.4 °C 29.9in /  1011.1hPa NE 8.2mph /  13.2km/h 14mph /  22.5km/h 65.9% 0in /  0.0mm
21:54 82.8 °F /  28.2 °C 70.7 °F /  21.5 °C 29.9in /  1011.1hPa NE 7.6mph /  12.2km/h 14.7mph /  23.7km/h 66.8% 0in /  0.0mm
21:59 82.4 °F /  28 °C 70.5 °F /  21.4 °C 29.9in /  1011.1hPa NE 8.3mph /  13.3km/h 15mph /  24.1km/h 67.5% 0in /  0.0mm
22:04 82.2 °F /  27.9 °C 70.5 °F /  21.4 °C 29.9in /  1011.4hPa NE 9.2mph /  14.8km/h 14mph /  22.5km/h 68% 0in /  0.0mm
22:09 82 °F /  27.8 °C 70.3 °F /  21.3 °C 29.9in /  1011.4hPa NE 8.9mph /  14.3km/h 14mph /  22.5km/h 68% 0in /  0.0mm
22:14 81.9 °F /  27.7 °C 70.3 °F /  21.3 °C 29.9in /  1011.4hPa NE 8.1mph /  13km/h 20.8mph /  33.5km/h 68% 0in /  0.0mm
22:19 81.9 °F /  27.7 °C 70.2 °F /  21.2 °C 29.9in /  1011.7hPa NE 8.3mph /  13.4km/h 21mph /  33.8km/h 68% 0in /  0.0mm
22:24 81.5 °F /  27.5 °C 70 °F /  21.1 °C 29.9in /  1011.7hPa NE 8.7mph /  14km/h 15mph /  24.1km/h 68% 0in /  0.0mm
22:29 81.3 °F /  27.4 °C 69.4 °F /  20.8 °C 29.9in /  1011.7hPa NE 8.7mph /  14km/h 15mph /  24.1km/h 67.4% 0in /  0.0mm
22:34 81.3 °F /  27.4 °C 68.7 °F /  20.4 °C 29.9in /  1012.0hPa NE 8.7mph /  14km/h 15mph /  24.1km/h 65.7% 0in /  0.0mm
22:39 81.3 °F /  27.4 °C 68.9 °F /  20.5 °C 29.9in /  1012.0hPa NE 9.2mph /  14.8km/h 16.3mph /  26.2km/h 65.9% 0in /  0.0mm
22:44 81.3 °F /  27.4 °C 68.9 °F /  20.5 °C 29.9in /  1012.0hPa NE 10mph /  16.1km/h 16mph /  25.7km/h 66% 0in /  0.0mm
22:49 81.1 °F /  27.3 °C 68.7 °F /  20.4 °C 29.9in /  1012.1hPa NE 9.3mph /  15km/h 13mph /  20.9km/h 66% 0in /  0.0mm
22:54 81.1 °F /  27.3 °C 68.9 °F /  20.5 °C 29.9in /  1012.1hPa NE 8.1mph /  13km/h 13mph /  20.9km/h 66.7% 0in /  0.0mm
22:59 81 °F /  27.2 °C 69.1 °F /  20.6 °C 29.9in /  1012.1hPa NE 7.9mph /  12.7km/h 13mph /  20.9km/h 67% 0in /  0.0mm
23:04 81 °F /  27.2 °C 68.9 °F /  20.5 °C 29.9in /  1012.4hPa NE 7.6mph /  12.2km/h 12mph /  19.3km/h 67% 0in /  0.0mm
23:09 80.8 °F /  27.1 °C 68.9 °F /  20.5 °C 29.9in /  1012.4hPa NE 7.3mph /  11.8km/h 13mph /  20.9km/h 67.3% 0in /  0.0mm
23:14 80.8 °F /  27.1 °C 69.3 °F /  20.7 °C 29.9in /  1012.4hPa NE 6.9mph /  11.1km/h 13mph /  20.9km/h 68% 0in /  0.0mm
23:19 80.4 °F /  26.9 °C 68.9 °F /  20.5 °C 29.9in /  1012.7hPa NNE 7.1mph /  11.5km/h 13mph /  20.9km/h 68% 0in /  0.0mm
23:24 80.4 °F /  26.9 °C 69.3 °F /  20.7 °C 29.9in /  1012.7hPa NE 7.6mph /  12.2km/h 12mph /  19.3km/h 68.9% 0in /  0.0mm
23:29 80.4 °F /  26.9 °C 69.3 °F /  20.7 °C 29.9in /  1012.7hPa NE 7.3mph /  11.8km/h 12mph /  19.3km/h 69% 0in /  0.0mm
23:34 80.4 °F /  26.9 °C 69.4 °F /  20.8 °C 29.9in /  1012.7hPa NE 6.9mph /  11.1km/h 9mph /  14.5km/h 69.4% 0in /  0.0mm
23:39 80.2 °F /  26.8 °C 69.6 °F /  20.9 °C 29.9in /  1012.7hPa NE 6.5mph /  10.5km/h 9mph /  14.5km/h 70% 0in /  0.0mm
23:44 80.1 °F /  26.7 °C 69.8 °F /  21 °C 29.9in /  1012.7hPa NE 5.9mph /  9.5km/h 9mph /  14.5km/h 70.9% 0in /  0.0mm
23:49 80.1 °F /  26.7 °C 70.2 °F /  21.2 °C 29.9in /  1012.8hPa NNE 5.7mph /  9.2km/h 9.7mph /  15.6km/h 72% 0in /  0.0mm
23:54 79.9 °F /  26.6 °C 70.3 °F /  21.3 °C 29.9in /  1012.8hPa NE 5.4mph /  8.7km/h 10mph /  16.1km/h 73% 0in /  0.0mm
23:59 79.5 °F /  26.4 °C 70.5 °F /  21.4 °C 29.9in /  1012.8hPa NNE 5.6mph /  9km/h 9.2mph /  14.8km/h 73.8% 0in /  0.0mm
Murcia-Puente Tocinos, España
Compliments of Weather Underground - 3 mb

La estación de MeteoMurcia.com, publica sus datos en los siguientes proyectos:

Weather Underground PWS IMURCIAP2 Meteoclimatic www.awekas.at

W3Counter
Web Analytics